METAR Data
IDs: Format: Raw Decoded Include TAF

Data at: 0300 UTC 15 Aug 2020

METAR for:KJYO (Leesburg/Executive A, VA, US)
Text:KJYO 150255Z AUTO 00000KT 10SM SCT065 OVC075 20/20 A3002 RMK AO2 P0003
Temperature: 20.0°C ( 68°F)
Dewpoint: 20.0°C ( 68°F) [RH = 100%]
Pressure (altimeter):30.02 inches Hg (1016.7 mb)
Winds:calm
Visibility:10 or more sm (16+ km)
Ceiling:7500 feet AGL
Clouds: scattered clouds at 6500 feet AGL, overcast cloud deck at 7500 feet AGL
QC Flag:automated observation with no human augmentation